Time;durP1;ratioP1;P1;durP2;ratioP2;P2;SDS_P1;SDS_P2;PMS_P1;PMS_P2;Temp;Humidity;BMP_temperature;BMP_pressure;BME280_temperature;BME280_humidity;BME280_pressure;Samples;Min_cycle;Max_cycle;Signal;HPM_P1;HPM_P2
2024/02/13 00:00:20;;;;;;;12.27;6.00;;;;;;;;;;7320192;19;20494;-46
2024/02/13 00:02:50;;;;;;;14.03;5.70;;;;;;;;;;7341479;19;20399;-46
2024/02/13 00:05:22;;;;;;;11.90;6.40;;;;;;;;;;7318341;19;20427;-47
2024/02/13 00:07:51;;;;;;;13.47;6.37;;;;;;;;;;7342293;19;20950;-46
2024/02/13 00:10:21;;;;;;;13.97;6.57;;;;;;;;;;7319212;19;20419;-50
2024/02/13 00:12:51;;;;;;;14.20;6.70;;;;;;;;;;7342892;19;20403;-47
2024/02/13 00:15:21;;;;;;;17.93;6.03;;;;;;;;;;7318571;19;20427;-46
2024/02/13 00:17:51;;;;;;;16.53;6.67;;;;;;;;;;7341468;19;20421;-46
2024/02/13 00:20:24;;;;;;;19.00;7.63;;;;;;;;;;7320006;19;20427;-47
2024/02/13 00:22:55;;;;;;;16.60;6.20;;;;;;;;;;7342498;19;20397;-48
2024/02/13 00:25:25;;;;;;;21.67;6.73;;;;;;;;;;7318914;19;20457;-46
2024/02/13 00:27:55;;;;;;;19.73;6.57;;;;;;;;;;7342659;19;20419;-47
2024/02/13 00:30:24;;;;;;;12.67;5.27;;;;;;;;;;7320115;19;21030;-45
2024/02/13 00:32:54;;;;;;;11.13;5.10;;;;;;;;;;7348144;19;20402;-48
2024/02/13 00:35:26;;;;;;;14.70;6.03;;;;;;;;;;7325115;19;21108;-48
2024/02/13 00:37:55;;;;;;;18.23;6.10;;;;;;;;;;7350593;19;20460;-56
2024/02/13 00:40:25;;;;;;;17.60;5.87;;;;;;;;;;7328345;19;20876;-46
2024/02/13 00:42:55;;;;;;;21.80;6.23;;;;;;;;;;7345879;19;20394;-46
2024/02/13 00:45:27;;;;;;;20.37;7.13;;;;;;;;;;7323943;19;20506;-46
2024/02/13 00:47:56;;;;;;;16.10;6.00;;;;;;;;;;7348256;19;20442;-46
2024/02/13 00:50:28;;;;;;;13.27;5.87;;;;;;;;;;7323988;19;20439;-47
2024/02/13 00:52:59;;;;;;;16.00;6.07;;;;;;;;;;7349439;19;20997;-48
2024/02/13 00:55:31;;;;;;;18.53;5.90;;;;;;;;;;7325177;19;20427;-47
2024/02/13 00:58:00;;;;;;;11.00;4.07;;;;;;;;;;7349195;19;20427;-46
2024/02/13 01:00:30;;;;;;;15.90;5.13;;;;;;;;;;7325076;19;21019;-49
2024/02/13 01:03:02;;;;;;;20.60;5.47;;;;;;;;;;7347312;19;20958;-49
2024/02/13 01:05:37;;;;;;;14.77;5.30;;;;;;;;;;7326283;19;20411;-46
2024/02/13 01:08:07;;;;;;;10.50;4.70;;;;;;;;;;7347714;19;20422;-47
2024/02/13 01:10:36;;;;;;;12.30;4.43;;;;;;;;;;7324327;19;20439;-48
2024/02/13 01:13:07;;;;;;;12.97;5.63;;;;;;;;;;7347294;19;20966;-46
2024/02/13 01:15:37;;;;;;;10.30;5.27;;;;;;;;;;7325293;19;20380;-49
2024/02/13 01:18:07;;;;;;;10.33;4.73;;;;;;;;;;7347694;19;20999;-47
2024/02/13 01:20:39;;;;;;;10.20;4.97;;;;;;;;;;7325918;19;20368;-49
2024/02/13 01:23:11;;;;;;;14.80;5.20;;;;;;;;;;7348486;19;20435;-47
2024/02/13 01:25:41;;;;;;;16.87;4.83;;;;;;;;;;7326193;19;20387;-48
2024/02/13 01:28:10;;;;;;;9.60;5.07;;;;;;;;;;7347926;19;20470;-50
2024/02/13 01:30:41;;;;;;;9.10;4.17;;;;;;;;;;7324585;19;20935;-47
2024/02/13 01:33:11;;;;;;;12.63;5.40;;;;;;;;;;7347961;19;20443;-49
2024/02/13 01:35:44;;;;;;;8.90;4.60;;;;;;;;;;7326903;19;20408;-47
2024/02/13 01:38:14;;;;;;;14.20;5.73;;;;;;;;;;7347653;19;20419;-48
2024/02/13 01:40:46;;;;;;;11.37;4.87;;;;;;;;;;7326534;19;20420;-49
2024/02/13 01:43:16;;;;;;;8.20;4.97;;;;;;;;;;7343397;19;20971;-47
2024/02/13 01:45:48;;;;;;;8.00;4.07;;;;;;;;;;7346452;19;21032;-48
2024/02/13 01:48:17;;;;;;;10.27;4.63;;;;;;;;;;7322787;19;20796;-46
2024/02/13 01:50:50;;;;;;;15.33;4.70;;;;;;;;;;7347179;19;20399;-46
2024/02/13 01:53:21;;;;;;;11.33;5.50;;;;;;;;;;7324443;19;20435;-48
2024/02/13 01:55:51;;;;;;;12.43;5.17;;;;;;;;;;7347965;19;20406;-49
2024/02/13 01:58:22;;;;;;;14.40;5.27;;;;;;;;;;7323765;19;20452;-49
2024/02/13 02:00:58;;;;;;;8.50;4.83;;;;;;;;;;7347559;19;20479;-48
2024/02/13 02:03:31;;;;;;;14.13;6.57;;;;;;;;;;7324490;19;20968;-46
2024/02/13 02:06:03;;;;;;;11.57;4.60;;;;;;;;;;7348156;19;20406;-50
2024/02/13 02:08:34;;;;;;;15.77;4.93;;;;;;;;;;7323233;19;20423;-47
2024/02/13 02:11:04;;;;;;;11.00;3.60;;;;;;;;;;7346466;19;20420;-46
2024/02/13 02:13:35;;;;;;;10.17;4.50;;;;;;;;;;7323543;19;20683;-47
2024/02/13 02:16:06;;;;;;;19.23;4.43;;;;;;;;;;7345820;19;20426;-47
2024/02/13 02:18:36;;;;;;;13.87;6.60;;;;;;;;;;7322065;19;20879;-47
2024/02/13 02:21:08;;;;;;;14.97;4.90;;;;;;;;;;7347142;19;20423;-47
2024/02/13 02:23:38;;;;;;;11.10;4.90;;;;;;;;;;7323641;19;20779;-46
2024/02/13 02:26:10;;;;;;;11.37;4.53;;;;;;;;;;7346695;19;20845;-49
2024/02/13 02:28:40;;;;;;;22.77;5.50;;;;;;;;;;7322994;19;20379;-48
2024/02/13 02:31:11;;;;;;;13.67;4.63;;;;;;;;;;7344572;19;20411;-49
2024/02/13 02:33:43;;;;;;;12.63;4.93;;;;;;;;;;7323465;19;21479;-49
2024/02/13 02:36:13;;;;;;;11.73;5.27;;;;;;;;;;7345847;19;20419;-48
2024/02/13 02:38:42;;;;;;;9.60;4.73;;;;;;;;;;7324882;19;20752;-47
2024/02/13 02:41:15;;;;;;;11.83;4.40;;;;;;;;;;7345244;19;20785;-46
2024/02/13 02:43:44;;;;;;;6.77;4.23;;;;;;;;;;7318068;19;20454;-49
2024/02/13 02:46:14;;;;;;;10.10;3.83;;;;;;;;;;7344915;19;20435;-49
2024/02/13 02:48:43;;;;;;;9.43;4.40;;;;;;;;;;7324353;19;20404;-47
2024/02/13 02:51:13;;;;;;;14.20;3.70;;;;;;;;;;7344919;19;20958;-46
2024/02/13 02:53:42;;;;;;;11.17;4.77;;;;;;;;;;7321689;19;20453;-48
2024/02/13 02:56:15;;;;;;;9.00;4.10;;;;;;;;;;7345593;19;20402;-47
2024/02/13 02:58:45;;;;;;;13.03;5.23;;;;;;;;;;7324475;19;20763;-46
2024/02/13 03:01:15;;;;;;;4.67;1.93;;;;;;;;;;7345616;19;20430;-48
2024/02/13 03:03:44;;;;;;;11.70;2.83;;;;;;;;;;7323126;19;20385;-47
2024/02/13 03:06:14;;;;;;;15.53;3.97;;;;;;;;;;7345843;19;21042;-45
2024/02/13 03:08:44;;;;;;;12.13;5.30;;;;;;;;;;7323484;19;20427;-46
2024/02/13 03:11:16;;;;;;;28.53;5.03;;;;;;;;;;7346487;19;20503;-48
2024/02/13 03:13:45;;;;;;;15.00;4.30;;;;;;;;;;7323262;19;20942;-47
2024/02/13 03:16:14;;;;;;;5.57;3.50;;;;;;;;;;7345112;19;20461;-47
2024/02/13 03:18:45;;;;;;;21.70;5.03;;;;;;;;;;7321986;19;20474;-46
2024/02/13 03:21:14;;;;;;;13.10;4.83;;;;;;;;;;7344386;19;20434;-47
2024/02/13 03:23:44;;;;;;;12.20;4.57;;;;;;;;;;7323003;19;20402;-46
2024/02/13 03:26:16;;;;;;;5.50;2.63;;;;;;;;;;7344434;19;20440;-47
2024/02/13 03:28:46;;;;;;;13.53;3.80;;;;;;;;;;7323669;19;20387;-47
2024/02/13 03:31:15;;;;;;;18.20;5.07;;;;;;;;;;7345251;19;20457;-48
2024/02/13 03:33:44;;;;;;;11.17;4.33;;;;;;;;;;7322652;19;20401;-47
2024/02/13 03:36:16;;;;;;;13.00;4.10;;;;;;;;;;7345413;19;20785;-47
2024/02/13 03:38:47;;;;;;;14.60;5.47;;;;;;;;;;7321078;19;20889;-47
2024/02/13 03:41:20;;;;;;;14.00;3.57;;;;;;;;;;7325657;19;20430;-47
2024/02/13 03:43:50;;;;;;;6.20;3.07;;;;;;;;;;7344069;19;20755;-47
2024/02/13 03:46:19;;;;;;;7.77;4.03;;;;;;;;;;7320353;19;20915;-49
2024/02/13 03:48:48;;;;;;;8.17;4.40;;;;;;;;;;7343310;19;20750;-51
2024/02/13 03:51:18;;;;;;;10.77;3.43;;;;;;;;;;7319215;19;20430;-48
2024/02/13 03:53:48;;;;;;;5.80;1.93;;;;;;;;;;7343230;19;20403;-46
2024/02/13 03:56:20;;;;;;;9.67;4.83;;;;;;;;;;7322723;19;20434;-46
2024/02/13 03:58:50;;;;;;;13.27;4.67;;;;;;;;;;7343702;19;20934;-48
2024/02/13 04:01:19;;;;;;;10.70;4.13;;;;;;;;;;7320817;19;20445;-46
2024/02/13 04:03:49;;;;;;;10.50;4.63;;;;;;;;;;7343035;19;20399;-51
2024/02/13 04:06:18;;;;;;;8.13;4.50;;;;;;;;;;7325061;19;20424;-46
2024/02/13 04:08:48;;;;;;;17.50;4.90;;;;;;;;;;7350591;19;20942;-48
2024/02/13 04:11:20;;;;;;;6.50;3.37;;;;;;;;;;7330622;19;20431;-46
2024/02/13 04:13:49;;;;;;;11.33;4.73;;;;;;;;;;7350232;19;20424;-46
2024/02/13 04:16:18;;;;;;;15.40;5.20;;;;;;;;;;7327259;19;20466;-47
2024/02/13 04:18:48;;;;;;;13.73;4.50;;;;;;;;;;7348566;19;20391;-47
2024/02/13 04:21:19;;;;;;;11.53;4.90;;;;;;;;;;7326591;19;20950;-47
2024/02/13 04:23:48;;;;;;;14.80;4.00;;;;;;;;;;7350639;19;20407;-45
2024/02/13 04:26:22;;;;;;;8.13;3.17;;;;;;;;;;7325224;19;20407;-48
2024/02/13 04:29:04;;;;;;;9.23;4.20;;;;;;;;;;7350425;19;20419;-46
2024/02/13 04:31:34;;;;;;;34.33;10.17;;;;;;;;;;7326221;19;20484;-46
2024/02/13 04:34:03;;;;;;;11.40;4.60;;;;;;;;;;7349350;19;20510;-47
2024/02/13 04:36:33;;;;;;;5.17;2.93;;;;;;;;;;7327339;19;20954;-47
2024/02/13 04:39:02;;;;;;;12.93;5.07;;;;;;;;;;7350690;19;20969;-49
2024/02/13 04:41:34;;;;;;;7.23;3.50;;;;;;;;;;7327095;19;20966;-45
2024/02/13 04:44:04;;;;;;;14.33;5.10;;;;;;;;;;7347188;19;20556;-47
2024/02/13 04:46:33;;;;;;;4.77;1.80;;;;;;;;;;7327242;19;20431;-47
2024/02/13 04:49:03;;;;;;;12.67;5.00;;;;;;;;;;7327502;19;20419;-47
2024/02/13 04:51:33;;;;;;;12.83;3.70;;;;;;;;;;7320108;19;20512;-47
2024/02/13 04:54:03;;;;;;;14.13;4.50;;;;;;;;;;7349494;19;20911;-46
2024/02/13 04:56:35;;;;;;;13.80;3.40;;;;;;;;;;7325551;19;20836;-47
2024/02/13 04:59:07;;;;;;;12.10;4.97;;;;;;;;;;7347339;19;20435;-49
2024/02/13 05:01:43;;;;;;;12.33;5.17;;;;;;;;;;7325876;19;20385;-46
2024/02/13 05:09:36;;;;;;;11.70;6.27;;;;;;;;;;7318327;19;20797;-48
2024/02/13 05:12:08;;;;;;;14.00;6.20;;;;;;;;;;7345673;19;20502;-46
2024/02/13 05:14:38;;;;;;;13.30;6.10;;;;;;;;;;7326969;19;20429;-48
2024/02/13 05:17:08;;;;;;;19.13;4.67;;;;;;;;;;7346757;19;20406;-46
2024/02/13 05:19:38;;;;;;;17.00;6.53;;;;;;;;;;7326686;19;21764;-50
2024/02/13 05:22:08;;;;;;;25.63;8.63;;;;;;;;;;7347988;19;20445;-47
2024/02/13 05:24:39;;;;;;;11.67;6.60;;;;;;;;;;7325459;19;20628;-46
2024/02/13 05:27:12;;;;;;;16.43;5.77;;;;;;;;;;7345613;19;20835;-48
2024/02/13 05:29:43;;;;;;;21.40;7.83;;;;;;;;;;7325154;19;20415;-46
2024/02/13 05:32:14;;;;;;;15.23;6.73;;;;;;;;;;7346538;19;20422;-47
2024/02/13 05:34:44;;;;;;;12.97;6.60;;;;;;;;;;7326517;19;20949;-46
2024/02/13 05:37:13;;;;;;;13.60;6.30;;;;;;;;;;7346348;19;20443;-48
2024/02/13 05:39:43;;;;;;;12.30;5.23;;;;;;;;;;7325902;19;20432;-48
2024/02/13 05:42:18;;;;;;;15.87;6.40;;;;;;;;;;7348330;19;21234;-47
2024/02/13 05:44:48;;;;;;;11.40;4.43;;;;;;;;;;7325721;19;20378;-47
2024/02/13 05:47:18;;;;;;;12.17;5.90;;;;;;;;;;7348063;19;20467;-46
2024/02/13 05:49:48;;;;;;;18.17;7.40;;;;;;;;;;7326564;19;20359;-46
2024/02/13 05:52:18;;;;;;;16.60;7.53;;;;;;;;;;7346851;19;20452;-50
2024/02/13 05:54:47;;;;;;;16.90;5.93;;;;;;;;;;7326503;19;20401;-51
2024/02/13 05:57:19;;;;;;;27.80;8.53;;;;;;;;;;7347825;19;20469;-45
2024/02/13 05:59:49;;;;;;;18.20;8.40;;;;;;;;;;7326200;19;20387;-48
2024/02/13 06:02:19;;;;;;;20.63;8.40;;;;;;;;;;7332921;19;20434;-49
2024/02/13 06:04:49;;;;;;;29.10;8.60;;;;;;;;;;7346470;19;20923;-46
2024/02/13 06:07:18;;;;;;;10.33;4.97;;;;;;;;;;7336615;19;20430;-49
2024/02/13 06:09:48;;;;;;;22.83;8.90;;;;;;;;;;7342010;19;20810;-45
2024/02/13 06:12:20;;;;;;;21.87;7.27;;;;;;;;;;7346655;19;20457;-47
2024/02/13 06:14:49;;;;;;;24.53;8.90;;;;;;;;;;7324279;19;20494;-49
2024/02/13 06:17:19;;;;;;;13.40;7.13;;;;;;;;;;7329757;19;20506;-47
2024/02/13 06:19:49;;;;;;;21.10;8.93;;;;;;;;;;7346706;19;20398;-46
2024/02/13 06:22:18;;;;;;;28.80;8.90;;;;;;;;;;7339561;19;20440;-45
2024/02/13 06:24:47;;;;;;;16.67;8.10;;;;;;;;;;7345199;19;20407;-45
2024/02/13 06:27:20;;;;;;;27.93;10.10;;;;;;;;;;7345239;19;20431;-49
2024/02/13 06:29:49;;;;;;;18.17;7.03;;;;;;;;;;7323380;19;20425;-49
2024/02/13 06:32:19;;;;;;;24.23;8.13;;;;;;;;;;7332992;19;20429;-48
2024/02/13 06:34:48;;;;;;;20.30;10.50;;;;;;;;;;7345368;19;20407;-48
2024/02/13 06:37:17;;;;;;;26.20;9.63;;;;;;;;;;7345626;19;20426;-48
2024/02/13 06:39:47;;;;;;;23.43;10.00;;;;;;;;;;7324839;19;20387;-49
2024/02/13 06:42:16;;;;;;;70.20;25.60;;;;;;;;;;7344303;19;20443;-47
2024/02/13 06:44:49;;;;;;;23.90;10.33;;;;;;;;;;7324070;19;20470;-47
2024/02/13 06:47:18;;;;;;;35.27;13.53;;;;;;;;;;7336596;19;20855;-45
2024/02/13 06:49:48;;;;;;;38.30;11.37;;;;;;;;;;7339918;19;20858;-50
2024/02/13 06:52:17;;;;;;;33.90;12.00;;;;;;;;;;7345700;19;20452;-47
2024/02/13 06:54:47;;;;;;;39.57;11.90;;;;;;;;;;7323288;19;20759;-48
2024/02/13 06:57:19;;;;;;;22.77;11.17;;;;;;;;;;7331210;19;20836;-48
2024/02/13 06:59:51;;;;;;;26.70;11.43;;;;;;;;;;7343967;19;20419;-47
2024/02/13 07:02:21;;;;;;;38.43;13.13;;;;;;;;;;7321879;19;20542;-47
2024/02/13 07:04:51;;;;;;;32.37;13.60;;;;;;;;;;7345022;19;20406;-48
2024/02/13 07:07:20;;;;;;;20.13;8.57;;;;;;;;;;7319222;19;20427;-47
2024/02/13 07:10:06;;;;;;;38.87;15.97;;;;;;;;;;7343154;19;20452;-46
2024/02/13 07:12:36;;;;;;;25.67;12.07;;;;;;;;;;7322343;19;20967;-48
2024/02/13 07:15:09;;;;;;;27.37;13.27;;;;;;;;;;7342952;19;21219;-48
2024/02/13 07:17:39;;;;;;;29.93;13.17;;;;;;;;;;7320449;19;20388;-48
2024/02/13 07:20:13;;;;;;;35.37;11.83;;;;;;;;;;7344890;19;20431;-46
2024/02/13 07:22:43;;;;;;;48.53;17.37;;;;;;;;;;7322585;19;20407;-50
2024/02/13 07:25:12;;;;;;;39.87;13.73;;;;;;;;;;7344595;19;20489;-49
2024/02/13 07:27:42;;;;;;;25.80;10.53;;;;;;;;;;7321249;19;20399;-48
2024/02/13 07:30:15;;;;;;;28.50;13.43;;;;;;;;;;7344327;19;20430;-46
2024/02/13 07:32:45;;;;;;;36.50;14.60;;;;;;;;;;7322485;19;20810;-45
2024/02/13 07:35:16;;;;;;;18.67;8.93;;;;;;;;;;7343694;19;20443;-47
2024/02/13 07:37:47;;;;;;;18.53;9.17;;;;;;;;;;7320365;19;20494;-46
2024/02/13 07:40:16;;;;;;;32.17;11.73;;;;;;;;;;7343470;19;20793;-48
2024/02/13 07:42:46;;;;;;;28.00;12.70;;;;;;;;;;7322662;19;20755;-47
2024/02/13 07:45:18;;;;;;;34.97;13.33;;;;;;;;;;7343203;19;20477;-45
2024/02/13 07:47:47;;;;;;;30.73;13.70;;;;;;;;;;7320604;19;20409;-46
2024/02/13 07:50:17;;;;;;;25.63;11.73;;;;;;;;;;7344633;19;20944;-49
2024/02/13 07:52:46;;;;;;;26.97;11.20;;;;;;;;;;7322192;19;20965;-46
2024/02/13 07:55:16;;;;;;;24.57;8.10;;;;;;;;;;7343674;19;20562;-48
2024/02/13 07:57:49;;;;;;;35.53;13.90;;;;;;;;;;7323075;19;20399;-48
2024/02/13 08:00:23;;;;;;;24.20;10.53;;;;;;;;;;7330006;19;20502;-47
2024/02/13 08:02:53;;;;;;;26.33;13.43;;;;;;;;;;7342893;19;20414;-47
2024/02/13 08:05:23;;;;;;;33.53;13.97;;;;;;;;;;7320055;19;20419;-48
2024/02/13 08:07:52;;;;;;;48.33;19.80;;;;;;;;;;7343116;19;20375;-47
2024/02/13 08:10:22;;;;;;;30.87;14.70;;;;;;;;;;7320658;19;20419;-48
2024/02/13 08:12:51;;;;;;;39.93;16.87;;;;;;;;;;7342632;19;20415;-46
2024/02/13 08:15:23;;;;;;;36.30;14.53;;;;;;;;;;7316204;19;20431;-48
2024/02/13 08:17:53;;;;;;;32.83;14.00;;;;;;;;;;7340416;19;20418;-48
2024/02/13 08:20:22;;;;;;;34.80;11.90;;;;;;;;;;7320677;19;20809;-47
2024/02/13 08:22:52;;;;;;;40.63;15.73;;;;;;;;;;7342514;19;20470;-48
2024/02/13 08:25:21;;;;;;;34.67;14.23;;;;;;;;;;7318423;19;20423;-50
2024/02/13 08:27:51;;;;;;;52.33;15.57;;;;;;;;;;7340198;19;20807;-47
2024/02/13 08:30:20;;;;;;;25.43;11.13;;;;;;;;;;7316999;19;21066;-48
2024/02/13 08:32:52;;;;;;;26.13;10.80;;;;;;;;;;7342672;19;20406;-47
2024/02/13 08:35:22;;;;;;;28.20;12.40;;;;;;;;;;7319009;19;20598;-45
2024/02/13 08:37:52;;;;;;;28.93;12.90;;;;;;;;;;7341092;19;20437;-48
2024/02/13 08:40:25;;;;;;;27.23;11.73;;;;;;;;;;7317271;19;20419;-47
2024/02/13 08:42:57;;;;;;;40.80;13.77;;;;;;;;;;7341141;19;20763;-47
2024/02/13 08:45:27;;;;;;;15.10;7.17;;;;;;;;;;7318509;19;20424;-47
2024/02/13 08:47:59;;;;;;;34.43;12.80;;;;;;;;;;7340201;19;20423;-48
2024/02/13 08:50:30;;;;;;;32.93;13.40;;;;;;;;;;7319217;19;20443;-47
2024/02/13 08:52:59;;;;;;;35.73;14.77;;;;;;;;;;7346402;19;20816;-46
2024/02/13 08:55:29;;;;;;;43.27;17.60;;;;;;;;;;7324900;19;20537;-46
2024/02/13 08:57:58;;;;;;;19.00;9.07;;;;;;;;;;7347385;19;20403;-45
2024/02/13 09:00:29;;;;;;;26.23;11.93;;;;;;;;;;7326063;19;20486;-46
2024/02/13 09:03:01;;;;;;;35.77;14.07;;;;;;;;;;7348139;19;20787;-47
2024/02/13 09:05:31;;;;;;;19.93;10.70;;;;;;;;;;7325792;19;20427;-46
2024/02/13 09:08:01;;;;;;;26.97;12.90;;;;;;;;;;7349273;19;20478;-47
2024/02/13 09:10:31;;;;;;;27.27;10.07;;;;;;;;;;7325829;19;20448;-47
2024/02/13 09:13:00;;;;;;;34.63;13.87;;;;;;;;;;7348731;19;20533;-48
2024/02/13 09:15:30;;;;;;;23.23;10.63;;;;;;;;;;7324557;19;20464;-47
2024/02/13 09:18:02;;;;;;;20.17;8.77;;;;;;;;;;7346304;19;20399;-46
2024/02/13 09:20:32;;;;;;;21.23;9.43;;;;;;;;;;7324190;19;20420;-48
2024/02/13 09:23:02;;;;;;;17.63;7.93;;;;;;;;;;7349282;19;20431;-46
2024/02/13 09:25:32;;;;;;;19.50;9.73;;;;;;;;;;7322422;19;20830;-47
2024/02/13 09:28:02;;;;;;;26.57;10.70;;;;;;;;;;7348440;19;22385;-45
2024/02/13 09:30:33;;;;;;;16.30;6.93;;;;;;;;;;7325619;19;20427;-48
2024/02/13 09:33:05;;;;;;;31.93;12.60;;;;;;;;;;7347265;19;20822;-47
2024/02/13 09:35:35;;;;;;;26.30;11.20;;;;;;;;;;7324492;19;20427;-49
2024/02/13 09:38:04;;;;;;;19.13;8.10;;;;;;;;;;7347570;19;20470;-48
2024/02/13 09:40:34;;;;;;;17.27;9.77;;;;;;;;;;7323768;19;22226;-47
2024/02/13 09:43:04;;;;;;;29.93;10.73;;;;;;;;;;7347439;19;20429;-48
2024/02/13 09:45:34;;;;;;;15.63;6.40;;;;;;;;;;7324645;19;20451;-49
2024/02/13 09:48:09;;;;;;;27.73;10.50;;;;;;;;;;7345086;19;20828;-46
2024/02/13 09:50:41;;;;;;;25.13;11.33;;;;;;;;;;7325081;19;20388;-48
2024/02/13 09:53:17;;;;;;;21.33;9.73;;;;;;;;;;7345878;19;21066;-50
2024/02/13 09:55:47;;;;;;;24.47;12.10;;;;;;;;;;7325476;19;21004;-47
2024/02/13 09:58:18;;;;;;;16.57;8.23;;;;;;;;;;7347585;19;20526;-48
2024/02/13 10:00:47;;;;;;;22.23;10.50;;;;;;;;;;7327149;19;21014;-46
2024/02/13 10:03:19;;;;;;;20.80;10.47;;;;;;;;;;7345400;19;20517;-47
2024/02/13 10:05:49;;;;;;;12.40;6.07;;;;;;;;;;7325234;19;20828;-47
2024/02/13 10:08:22;;;;;;;24.50;11.43;;;;;;;;;;7335726;19;20434;-47
2024/02/13 10:11:01;;;;;;;22.70;9.30;;;;;;;;;;7347259;19;20412;-45
2024/02/13 10:13:35;;;;;;;24.90;12.23;;;;;;;;;;7322527;19;20434;-46
2024/02/13 10:16:05;;;;;;;16.27;8.50;;;;;;;;;;7345640;19;20433;-48
2024/02/13 10:18:37;;;;;;;25.63;11.00;;;;;;;;;;7323100;19;20990;-48
2024/02/13 10:21:08;;;;;;;25.47;11.03;;;;;;;;;;7347414;19;20419;-47
2024/02/13 10:23:38;;;;;;;31.93;14.43;;;;;;;;;;7322321;19;20839;-51
2024/02/13 10:26:10;;;;;;;8.47;4.10;;;;;;;;;;7343130;19;20419;-48
2024/02/13 10:28:43;;;;;;;30.70;14.00;;;;;;;;;;7319673;19;20455;-49
2024/02/13 10:31:12;;;;;;;20.50;10.17;;;;;;;;;;7342355;19;20491;-52
2024/02/13 10:33:45;;;;;;;18.67;9.40;;;;;;;;;;7319588;19;20438;-46
2024/02/13 10:36:14;;;;;;;31.47;13.60;;;;;;;;;;7345539;19;20407;-47
2024/02/13 10:38:45;;;;;;;31.73;13.33;;;;;;;;;;7323227;19;20407;-47
2024/02/13 10:41:20;;;;;;;50.80;17.83;;;;;;;;;;7341195;19;20457;-49
2024/02/13 10:43:53;;;;;;;28.63;11.90;;;;;;;;;;7315139;19;20387;-47
2024/02/13 10:46:24;;;;;;;20.93;8.30;;;;;;;;;;7309652;19;20419;-46
2024/02/13 10:48:59;;;;;;;49.37;18.67;;;;;;;;;;7338669;19;20399;-47
2024/02/13 10:51:32;;;;;;;41.60;14.57;;;;;;;;;;7320996;19;20423;-45
2024/02/13 10:54:04;;;;;;;25.93;10.73;;;;;;;;;;7344793;19;20408;-48
2024/02/13 10:56:35;;;;;;;23.07;11.40;;;;;;;;;;7306170;19;20427;-48
2024/02/13 10:59:05;;;;;;;16.00;6.80;;;;;;;;;;7345901;19;20989;-44
2024/02/13 11:01:37;;;;;;;19.97;9.73;;;;;;;;;;7316606;19;20433;-48
2024/02/13 11:04:10;;;;;;;21.57;7.47;;;;;;;;;;7324466;19;20451;-49
2024/02/13 11:06:39;;;;;;;14.27;6.97;;;;;;;;;;7318822;19;20444;-50
2024/02/13 11:09:12;;;;;;;26.03;10.40;;;;;;;;;;7344686;19;20441;-46
2024/02/13 11:11:44;;;;;;;15.03;7.40;;;;;;;;;;7310846;19;20471;-51
2024/02/13 11:14:18;;;;;;;21.60;8.03;;;;;;;;;;7335906;19;20430;-49
2024/02/13 11:16:54;;;;;;;24.00;11.10;;;;;;;;;;7299320;19;20391;-47
2024/02/13 11:19:27;;;;;;;18.67;6.50;;;;;;;;;;7337497;19;20419;-48
2024/02/13 11:21:57;;;;;;;13.67;5.87;;;;;;;;;;7293328;19;20410;-48
2024/02/13 11:24:26;;;;;;;11.17;4.80;;;;;;;;;;7325004;19;20433;-51
2024/02/13 11:26:56;;;;;;;21.90;9.87;;;;;;;;;;7320176;19;20472;-48
2024/02/13 11:29:29;;;;;;;20.80;8.57;;;;;;;;;;7344256;19;20423;-46
2024/02/13 11:31:59;;;;;;;19.90;9.87;;;;;;;;;;7262318;19;20406;-47
2024/02/13 11:34:44;;;;;;;23.33;10.00;;;;;;;;;;7302311;19;20415;-47
2024/02/13 11:37:16;;;;;;;9.73;5.13;;;;;;;;;;7342273;19;20808;-49
2024/02/13 11:39:45;;;;;;;19.47;8.70;;;;;;;;;;7322166;19;20423;-48
2024/02/13 11:42:17;;;;;;;19.57;8.87;;;;;;;;;;7339849;19;20887;-48
2024/02/13 11:44:48;;;;;;;30.57;9.43;;;;;;;;;;7320999;19;21742;-48
2024/02/13 11:47:22;;;;;;;8.07;4.03;;;;;;;;;;7336724;19;20797;-48
2024/02/13 11:49:55;;;;;;;7.50;5.23;;;;;;;;;;7305539;19;20454;-50
2024/02/13 11:52:26;;;;;;;23.10;12.43;;;;;;;;;;7344683;19;20543;-50
2024/02/13 11:54:55;;;;;;;14.37;6.17;;;;;;;;;;7323297;19;20387;-47
2024/02/13 11:57:26;;;;;;;16.17;7.37;;;;;;;;;;7341607;19;20419;-46
2024/02/13 11:59:59;;;;;;;20.23;9.80;;;;;;;;;;7391627;19;20403;-49
2024/02/13 12:02:30;;;;;;;18.97;10.50;;;;;;;;;;7392584;19;20439;-46
2024/02/13 12:05:02;;;;;;;7.87;3.50;;;;;;;;;;7391057;19;20420;-47
2024/02/13 12:07:34;;;;;;;22.47;10.70;;;;;;;;;;7391147;19;20935;-50
2024/02/13 12:10:05;;;;;;;15.17;8.53;;;;;;;;;;7392698;19;20403;-49
2024/02/13 12:12:34;;;;;;;24.23;7.97;;;;;;;;;;7391248;19;20848;-47
2024/02/13 12:15:08;;;;;;;19.20;9.60;;;;;;;;;;7393540;19;20418;-47
2024/02/13 12:17:38;;;;;;;20.17;9.47;;;;;;;;;;7391075;19;20435;-48
2024/02/13 12:20:12;;;;;;;24.33;10.83;;;;;;;;;;7391959;19;20410;-48
2024/02/13 12:22:44;;;;;;;24.10;11.77;;;;;;;;;;7391445;19;20787;-49
2024/02/13 12:25:15;;;;;;;27.80;10.90;;;;;;;;;;7391231;19;20431;-46
2024/02/13 12:27:45;;;;;;;11.33;4.83;;;;;;;;;;7396404;19;20399;-48
2024/02/13 12:30:14;;;;;;;12.23;5.17;;;;;;;;;;7396479;19;20953;-46
2024/02/13 12:32:44;;;;;;;25.73;11.90;;;;;;;;;;7398452;19;20514;-48
2024/02/13 12:35:32;;;;;;;14.10;6.23;;;;;;;;;;7395807;19;20950;-47
2024/02/13 12:38:12;;;;;;;31.87;15.03;;;;;;;;;;7397149;19;20407;-51
2024/02/13 12:40:42;;;;;;;23.03;11.47;;;;;;;;;;7397709;19;20411;-47
2024/02/13 12:43:15;;;;;;;25.93;13.33;;;;;;;;;;7396001;19;20451;-46
2024/02/13 12:45:46;;;;;;;34.53;14.40;;;;;;;;;;7392819;19;20930;-48
2024/02/13 12:48:17;;;;;;;30.20;14.30;;;;;;;;;;7388934;19;21002;-48
2024/02/13 12:50:52;;;;;;;28.90;14.13;;;;;;;;;;7388389;19;20435;-51
2024/02/13 12:53:21;;;;;;;27.63;14.10;;;;;;;;;;7388576;19;20521;-49
2024/02/13 12:55:52;;;;;;;30.03;14.67;;;;;;;;;;7365300;19;20428;-50
2024/02/13 12:58:21;;;;;;;23.80;11.70;;;;;;;;;;7347203;19;21198;-47
2024/02/13 13:00:51;;;;;;;37.43;12.67;;;;;;;;;;7322367;19;20448;-45
2024/02/13 13:03:21;;;;;;;30.13;14.33;;;;;;;;;;7347730;19;20804;-47
2024/02/13 13:05:53;;;;;;;19.90;8.73;;;;;;;;;;7322775;19;21038;-49
2024/02/13 13:08:22;;;;;;;18.40;8.00;;;;;;;;;;7347950;19;20769;-49
2024/02/13 13:10:52;;;;;;;26.47;9.77;;;;;;;;;;7323058;19;20431;-52
2024/02/13 13:13:23;;;;;;;17.10;9.17;;;;;;;;;;7349545;19;20435;-51
2024/02/13 13:15:53;;;;;;;22.10;10.10;;;;;;;;;;7326491;19;20431;-47
2024/02/13 13:18:23;;;;;;;30.00;16.30;;;;;;;;;;7350265;19;20427;-48
2024/02/13 13:20:56;;;;;;;30.17;15.00;;;;;;;;;;7326251;19;20419;-48
2024/02/13 13:23:26;;;;;;;23.43;10.27;;;;;;;;;;7349134;19;20450;-47
2024/02/13 13:25:55;;;;;;;18.80;6.30;;;;;;;;;;7323532;19;21044;-46
2024/02/13 13:28:26;;;;;;;13.73;5.50;;;;;;;;;;7349273;19;20423;-48
2024/02/13 13:30:57;;;;;;;32.40;11.80;;;;;;;;;;7325428;19;20399;-50
2024/02/13 13:33:30;;;;;;;26.40;12.30;;;;;;;;;;7349222;19;20427;-49
2024/02/13 13:36:05;;;;;;;31.03;12.20;;;;;;;;;;7327006;19;20776;-51
2024/02/13 13:38:35;;;;;;;19.63;10.00;;;;;;;;;;7331431;19;20446;-48
2024/02/13 13:41:07;;;;;;;26.07;12.20;;;;;;;;;;7347741;19;20456;-47
2024/02/13 13:43:36;;;;;;;12.83;7.20;;;;;;;;;;7324642;19;20577;-48
2024/02/13 13:46:06;;;;;;;16.27;8.20;;;;;;;;;;7347809;19;20427;-48
2024/02/13 13:48:35;;;;;;;21.60;10.93;;;;;;;;;;7326227;19;20483;-47
2024/02/13 13:51:08;;;;;;;27.00;12.40;;;;;;;;;;7348659;19;20415;-48
2024/02/13 13:53:39;;;;;;;16.23;8.40;;;;;;;;;;7324496;19;20864;-47
2024/02/13 13:56:10;;;;;;;25.33;10.50;;;;;;;;;;7334584;19;20554;-50
2024/02/13 13:58:40;;;;;;;26.37;13.30;;;;;;;;;;7325401;19;20502;-47
2024/02/13 14:01:09;;;;;;;20.70;12.50;;;;;;;;;;7348658;19;20423;-48
2024/02/13 14:03:39;;;;;;;19.10;10.80;;;;;;;;;;7323870;19;20439;-49
2024/02/13 14:06:11;;;;;;;36.70;14.30;;;;;;;;;;7347812;19;20436;-47
2024/02/13 14:08:40;;;;;;;23.90;12.93;;;;;;;;;;7324872;19;20433;-48
2024/02/13 14:11:10;;;;;;;48.97;19.93;;;;;;;;;;7349513;19;20431;-47
2024/02/13 14:13:39;;;;;;;27.33;12.70;;;;;;;;;;7323638;19;20437;-48
2024/02/13 14:16:10;;;;;;;19.83;8.10;;;;;;;;;;7347945;19;21205;-47
2024/02/13 14:18:39;;;;;;;26.03;12.13;;;;;;;;;;7323099;19;20428;-48
2024/02/13 14:21:12;;;;;;;30.13;15.43;;;;;;;;;;7348609;19;20435;-49
2024/02/13 14:23:42;;;;;;;15.50;7.80;;;;;;;;;;7323517;19;20778;-49
2024/02/13 14:26:13;;;;;;;21.17;10.57;;;;;;;;;;7346978;19;20427;-48
2024/02/13 14:28:42;;;;;;;25.50;12.17;;;;;;;;;;7323788;19;20495;-48
2024/02/13 14:31:12;;;;;;;16.17;7.70;;;;;;;;;;7346355;19;20501;-49
2024/02/13 14:33:42;;;;;;;40.60;16.80;;;;;;;;;;7324558;19;20859;-47
2024/02/13 14:36:14;;;;;;;29.03;13.53;;;;;;;;;;7347768;19;20433;-48
2024/02/13 14:38:43;;;;;;;39.77;12.40;;;;;;;;;;7325233;19;20437;-47
2024/02/13 14:41:15;;;;;;;24.13;11.83;;;;;;;;;;7347696;19;21065;-47
2024/02/13 14:43:47;;;;;;;20.40;11.03;;;;;;;;;;7325068;19;20427;-50
2024/02/13 14:46:17;;;;;;;18.73;10.37;;;;;;;;;;7347601;19;20442;-48
2024/02/13 14:48:48;;;;;;;21.00;11.07;;;;;;;;;;7322252;19;20427;-47
2024/02/13 14:51:20;;;;;;;32.73;12.93;;;;;;;;;;7346878;19;20954;-46